Portada
METAR-TAF:

METAR-TAF

Aeropuertos :

Niamey, Níger

Aeropuerto Internacional Diori Hamani

latitud: 13-29N, longitud: 002-10E, altitud: 223 m

Observación

El informe se hizo hace 21 minutos, a las 00:00 UTC
Viento calma
Temperatura 26°C
Humedad 28%
Presión 1010 hPa
Visibilidad: 8000 m

METAR: DRRN 200000Z 00000KT 8000 NSC 26/06 Q1010 NOSIG

Hora: 01:21 (00:21 UTC)

Pronóstico

El informe se hizo hace 1 hora y 21 minutos, a las 23:00 UTC
Pronóstico válido del 20 a las 00 UTC al 21 a las 06 UTC
Viento 3 kt con dirección variable
Visibilidad: 8000 m
Temporalmente
del 20 a las 06 UTC al 20 a las 08 UTC
Visibilidad: 4000 m
Polvo extendido
Temporalmente
del 20 a las 17 UTC al 20 a las 20 UTC
Visibilidad: 4000 m
Polvo extendido

TAF: DRRN 192300Z 2000/2106 VRB03KT 8000 NSC TEMPO 2006/2008 4000 DU TEMPO 2017/2020 4000 DU

Observaciones y pronósticos meteorológicos de más de 4000 aeropuertos (mensajes METAR y TAF).

Los puntos amarillos y rojos representan las estaciones disponibles.

Ponga el ratón en el punto deseado para ver el nombre de la estación.

Haga clic para ver las observaciones y los pronósticos meteorológicos.

Para cambiar el mapa : haga clic en los botones verdes con una cruz de color negro para hacer un zoom, en el botón verde con un guión para alejar o en las flechas verdes para mapas adyacentes.


METAR-TAF: